Time;durP1;ratioP1;P1;durP2;ratioP2;P2;SDS_P1;SDS_P2;PMS_P1;PMS_P2;Temp;Humidity;BMP_temperature;BMP_pressure;BME280_temperature;BME280_humidity;BME280_pressure;Samples;Min_cycle;Max_cycle;Signal;HPM_P1;HPM_P2
2022/08/10 00:01:50;;;;;;;2.95;2.22;;;;;;;16.86;68.59;102575.88;5029290;28;20515;-65
2022/08/10 00:04:16;;;;;;;4.43;2.05;;;;;;;16.77;70.34;102571.91;5029211;28;20027;-68
2022/08/10 00:06:41;;;;;;;2.78;1.95;;;;;;;16.72;69.30;102569.50;5029361;28;20095;-66
2022/08/10 00:09:07;;;;;;;2.40;2.17;;;;;;;16.70;69.57;102571.47;5029183;28;20124;-66
2022/08/10 00:11:32;;;;;;;3.70;2.10;;;;;;;16.69;69.76;102561.44;5035723;28;20029;-68
2022/08/10 00:13:57;;;;;;;3.05;1.73;;;;;;;16.67;69.64;102570.78;5042604;28;20041;-66
2022/08/10 00:16:23;;;;;;;3.97;2.13;;;;;;;16.59;70.51;102566.69;5025646;28;20041;-66
2022/08/10 00:18:48;;;;;;;5.43;2.05;;;;;;;16.61;69.00;102565.72;5038782;28;20025;-66
2022/08/10 00:21:14;;;;;;;4.95;2.10;;;;;;;16.61;69.04;102558.38;5029639;28;20136;-66
2022/08/10 00:23:40;;;;;;;5.40;1.85;;;;;;;16.58;69.17;102556.69;5026375;28;20037;-65
2022/08/10 00:26:06;;;;;;;2.53;1.65;;;;;;;16.55;70.15;102559.69;5026734;28;20476;-66
2022/08/10 00:28:31;;;;;;;4.22;1.90;;;;;;;16.50;68.89;102560.97;5025623;28;20083;-66
2022/08/10 00:30:57;;;;;;;4.32;1.92;;;;;;;16.47;69.64;102558.47;5026370;28;20037;-65
2022/08/10 00:33:22;;;;;;;4.20;1.85;;;;;;;16.44;70.15;102555.91;5026166;28;20040;-66
2022/08/10 00:35:48;;;;;;;4.05;1.90;;;;;;;16.42;69.51;102553.28;5026018;28;20485;-67
2022/08/10 00:38:13;;;;;;;2.30;1.92;;;;;;;16.41;70.42;102547.88;5041293;28;20541;-66
2022/08/10 00:40:38;;;;;;;4.85;2.65;;;;;;;16.34;71.26;102547.44;5026510;28;20127;-64
2022/08/10 00:43:05;;;;;;;4.53;2.25;;;;;;;16.31;70.79;102548.50;5026652;28;20037;-65
2022/08/10 00:45:33;;;;;;;4.30;2.08;;;;;;;16.30;70.45;102546.75;5043924;28;20049;-67
2022/08/10 00:47:58;;;;;;;2.83;1.80;;;;;;;16.30;69.72;102549.50;5031880;28;20045;-65
2022/08/10 00:50:24;;;;;;;3.05;2.10;;;;;;;16.29;69.87;102545.00;5025376;28;20034;-67
2022/08/10 00:52:49;;;;;;;3.08;2.10;;;;;;;16.27;69.80;102547.00;5026390;28;20041;-66
2022/08/10 00:55:15;;;;;;;2.80;2.10;;;;;;;16.24;70.02;102543.56;5024732;28;20033;-66
2022/08/10 00:57:40;;;;;;;3.53;2.38;;;;;;;16.24;70.77;102543.56;5026423;28;20417;-67
2022/08/10 01:00:08;;;;;;;3.25;1.67;;;;;;;16.21;69.74;102547.41;5024491;28;20512;-67
2022/08/10 01:02:33;;;;;;;2.72;2.22;;;;;;;16.13;70.57;102544.28;5025776;28;20037;-68
2022/08/10 01:05:01;;;;;;;5.45;2.10;;;;;;;16.06;71.73;102549.34;5025471;28;20029;-66
2022/08/10 01:07:52;;;;;;;3.53;2.10;;;;;;;16.03;71.02;102545.91;5025680;28;20057;-66
2022/08/10 01:10:28;;;;;;;2.63;1.98;;;;;;;16.03;71.46;102551.41;5026051;28;20037;-66
2022/08/10 01:13:03;;;;;;;4.45;2.05;;;;;;;16.03;70.34;102533.06;5026004;28;20045;-66
2022/08/10 01:15:52;;;;;;;3.38;1.88;;;;;;;16.03;70.28;102543.16;5042943;28;20087;-68
2022/08/10 01:18:33;;;;;;;1.98;1.80;;;;;;;15.95;70.48;102532.75;5029206;28;20052;-66
2022/08/10 01:21:25;;;;;;;2.85;2.42;;;;;;;15.95;70.76;102526.38;5025369;28;20072;-65
2022/08/10 01:24:15;;;;;;;3.20;2.13;;;;;;;15.89;71.23;102532.25;5024778;28;20215;-66
2022/08/10 01:27:02;;;;;;;3.15;1.80;;;;;;;15.85;71.91;102527.94;5025809;28;20353;-66
2022/08/10 01:29:46;;;;;;;5.50;2.30;;;;;;;15.82;70.90;102532.69;5025739;28;20037;-66
2022/08/10 01:32:17;;;;;;;3.20;2.28;;;;;;;15.77;71.40;102529.38;5025135;28;20412;-67
2022/08/10 01:34:53;;;;;;;2.97;2.53;;;;;;;15.78;71.52;102533.88;5039576;28;20041;-66
2022/08/10 01:37:25;;;;;;;4.55;2.13;;;;;;;15.74;72.40;102525.94;5025667;28;20128;-65
2022/08/10 01:39:57;;;;;;;3.10;2.40;;;;;;;15.75;71.10;102535.94;5025738;28;20049;-68
2022/08/10 01:42:24;;;;;;;4.72;2.45;;;;;;;15.75;71.86;102533.19;5040632;28;20068;-66
2022/08/10 01:44:56;;;;;;;3.75;2.38;;;;;;;15.75;71.40;102533.19;5037595;28;20091;-66
2022/08/10 01:50:23;;;;;;;4.60;2.53;;;;;;;15.70;72.65;102536.25;5024557;28;20033;-67
2022/08/10 01:52:51;;;;;;;3.90;2.45;;;;;;;15.65;72.84;102530.19;5031618;28;20049;-66
2022/08/10 01:55:18;;;;;;;8.82;2.55;;;;;;;15.65;72.78;102532.03;5044377;28;20370;-66
2022/08/10 01:57:45;;;;;;;3.67;2.50;;;;;;;15.62;72.08;102530.38;5025605;28;20546;-66
2022/08/10 02:00:12;;;;;;;4.40;2.58;;;;;;;15.61;72.32;102535.94;5051082;28;20047;-66
2022/08/10 02:02:40;;;;;;;2.88;2.60;;;;;;;15.60;72.83;102536.94;5023988;28;20051;-66
2022/08/10 02:05:07;;;;;;;4.82;2.40;;;;;;;15.57;71.97;102541.66;5042772;28;20064;-69
2022/08/10 02:07:34;;;;;;;5.68;2.60;;;;;;;15.55;72.73;102539.97;5048076;28;20433;-66
2022/08/10 02:10:03;;;;;;;4.28;2.50;;;;;;;15.52;72.62;102534.69;5047122;28;20040;-66
2022/08/10 02:12:31;;;;;;;2.80;2.17;;;;;;;15.49;73.00;102527.56;5028447;28;20049;-67
2022/08/10 02:15:04;;;;;;;4.07;2.42;;;;;;;15.48;72.94;102530.38;5057265;28;20550;-65
2022/08/10 02:17:38;;;;;;;5.47;3.10;;;;;;;15.47;73.83;102528.63;5029910;28;20041;-65
2022/08/10 02:20:08;;;;;;;5.28;2.65;;;;;;;15.40;73.05;102528.16;5027770;28;20115;-67
2022/08/10 02:22:36;;;;;;;5.47;2.53;;;;;;;15.36;75.10;102529.34;5028644;28;20037;-66
2022/08/10 02:25:03;;;;;;;3.97;2.85;;;;;;;15.27;74.18;102521.72;5029292;28;20032;-65
2022/08/10 02:27:30;;;;;;;3.55;2.65;;;;;;;15.23;74.50;102518.28;5029011;28;20500;-67
2022/08/10 02:29:56;;;;;;;9.80;3.13;;;;;;;15.22;74.98;102521.16;5029228;28;20044;-65
2022/08/10 02:32:24;;;;;;;4.18;2.88;;;;;;;15.19;74.19;102524.94;5029104;28;20052;-66
2022/08/10 02:34:51;;;;;;;3.53;2.60;;;;;;;15.19;73.75;102530.44;5028359;28;20477;-67
2022/08/10 02:37:23;;;;;;;4.50;2.95;;;;;;;15.16;73.98;102532.53;5029061;28;20033;-66
2022/08/10 02:39:49;;;;;;;3.60;2.70;;;;;;;15.17;73.43;102528.78;5029486;28;20053;-68
2022/08/10 02:42:32;;;;;;;4.20;2.80;;;;;;;15.17;73.50;102531.53;5028442;28;20033;-66
2022/08/10 02:45:06;;;;;;;3.20;2.70;;;;;;;15.16;73.66;102535.25;5041631;28;20048;-66
2022/08/10 02:47:38;;;;;;;3.60;2.92;;;;;;;15.10;76.00;102532.91;5038556;28;20128;-67
2022/08/10 02:50:27;;;;;;;5.53;3.25;;;;;;;15.06;73.25;102523.97;5027889;28;20124;-66
2022/08/10 02:53:04;;;;;;;6.18;3.13;;;;;;;15.03;73.94;102518.72;5028207;28;20235;-66
2022/08/10 02:55:32;;;;;;;6.30;3.90;;;;;;;15.00;75.77;102525.25;5043368;28;20452;-67
2022/08/10 02:58:05;;;;;;;5.18;3.03;;;;;;;14.97;75.21;102525.47;5042983;28;20111;-67
2022/08/10 03:00:32;;;;;;;3.95;3.00;;;;;;;14.93;74.89;102521.19;5027590;28;20114;-65
2022/08/10 03:03:00;;;;;;;5.70;3.25;;;;;;;14.93;75.75;102509.34;5040811;28;20021;-66
2022/08/10 03:05:28;;;;;;;6.80;4.03;;;;;;;14.86;76.46;102506.09;5038485;28;20045;-67
2022/08/10 03:08:05;;;;;;;5.57;3.67;;;;;;;14.84;76.12;102507.19;5027934;28;20045;-66
2022/08/10 03:10:35;;;;;;;3.70;3.03;;;;;;;14.77;75.29;102510.28;5028126;28;20674;-66
2022/08/10 03:13:05;;;;;;;8.20;4.05;;;;;;;14.74;76.64;102505.03;5043496;28;20061;-66
2022/08/10 03:15:33;;;;;;;6.15;4.78;;;;;;;14.76;77.68;102508.53;5045045;28;20044;-66
2022/08/10 03:17:59;;;;;;;4.75;3.55;;;;;;;14.73;75.81;102497.75;5033840;28;20046;-66
2022/08/10 03:20:32;;;;;;;4.68;3.70;;;;;;;14.71;77.05;102498.84;5042399;28;20130;-65
2022/08/10 03:23:00;;;;;;;6.88;3.90;;;;;;;14.67;76.68;102500.03;5040944;28;20532;-67
2022/08/10 03:25:27;;;;;;;5.53;3.58;;;;;;;14.64;76.29;102497.47;5045997;28;20048;-66
2022/08/10 03:27:53;;;;;;;5.15;3.40;;;;;;;14.67;76.12;102494.53;5028183;28;20408;-67
2022/08/10 03:30:19;;;;;;;10.20;3.25;;;;;;;14.63;75.90;102496.59;5028514;28;20021;-67
2022/08/10 03:32:45;;;;;;;3.72;3.08;;;;;;;14.63;76.61;102499.31;5027668;28;20051;-66
2022/08/10 03:35:12;;;;;;;6.63;3.42;;;;;;;14.62;75.58;102499.44;5026596;28;20179;-66
2022/08/10 03:37:38;;;;;;;5.13;3.35;;;;;;;14.59;76.19;102494.13;5027356;28;20508;-68
2022/08/10 03:40:06;;;;;;;5.05;3.33;;;;;;;14.58;75.71;102498.75;5027695;28;20053;-67
2022/08/10 03:42:34;;;;;;;5.88;3.55;;;;;;;14.57;75.93;102502.47;5027687;28;20037;-67
2022/08/10 03:45:03;;;;;;;4.25;3.42;;;;;;;14.56;75.72;102499.84;5035237;28;20044;-65
2022/08/10 03:47:29;;;;;;;7.25;4.10;;;;;;;14.53;77.04;102501.75;5027521;28;20534;-67
2022/08/10 03:49:57;;;;;;;5.75;4.00;;;;;;;14.48;76.89;102503.03;5026797;28;20083;-67
2022/08/10 03:52:23;;;;;;;7.97;4.55;;;;;;;14.44;77.15;102501.44;5027128;28;20136;-67
2022/08/10 03:54:50;;;;;;;5.57;3.80;;;;;;;14.44;76.38;102498.69;5028027;28;20065;-67
2022/08/10 03:57:16;;;;;;;5.68;3.53;;;;;;;14.43;75.90;102508.75;5026963;28;20186;-66
2022/08/10 03:59:41;;;;;;;5.25;3.63;;;;;;;14.40;76.55;102511.69;5026352;28;20042;-66
2022/08/10 04:02:08;;;;;;;4.32;3.83;;;;;;;14.41;77.29;102507.09;5027064;28;20100;-66
2022/08/10 04:04:33;;;;;;;8.00;4.15;;;;;;;14.37;77.83;102511.91;5026971;28;20501;-67
2022/08/10 04:06:59;;;;;;;5.20;3.67;;;;;;;14.36;76.45;102504.66;5026333;28;20065;-67
2022/08/10 04:09:35;;;;;;;10.48;4.55;;;;;;;14.31;78.42;102506.78;5027399;28;20102;-66
2022/08/10 04:12:01;;;;;;;5.25;4.05;;;;;;;14.33;78.12;102506.69;5026931;28;20037;-68
2022/08/10 04:14:27;;;;;;;5.97;3.75;;;;;;;14.31;76.62;102509.50;5035847;28;20047;-67
2022/08/10 04:16:52;;;;;;;5.50;3.72;;;;;;;14.32;76.75;102499.47;5042274;28;20477;-67
2022/08/10 04:19:19;;;;;;;5.97;3.97;;;;;;;14.28;78.74;102504.25;5027836;28;20037;-66
2022/08/10 04:22:06;;;;;;;4.85;3.50;;;;;;;14.27;76.12;102508.84;5037399;28;20045;-66
2022/08/10 04:24:33;;;;;;;7.93;3.67;;;;;;;14.27;76.59;102506.09;5027056;28;20072;-66
2022/08/10 04:27:00;;;;;;;5.85;3.25;;;;;;;14.25;76.98;102507.16;5035937;28;20099;-65
2022/08/10 04:29:26;;;;;;;6.15;4.07;;;;;;;14.26;75.61;102507.06;5027155;28;20815;-65
2022/08/10 04:31:52;;;;;;;5.82;3.75;;;;;;;14.26;76.98;102507.06;5026447;28;20028;-69
2022/08/10 04:34:19;;;;;;;8.23;4.00;;;;;;;14.24;77.49;102505.41;5027617;28;20091;-66
2022/08/10 04:36:48;;;;;;;6.07;3.90;;;;;;;14.23;76.29;102512.75;5025164;28;20045;-67
2022/08/10 04:39:14;;;;;;;5.55;3.53;;;;;;;14.23;77.03;102506.38;5025994;28;20144;-66
2022/08/10 04:41:40;;;;;;;7.03;4.30;;;;;;;14.19;77.50;102521.22;5029353;28;20666;-67
2022/08/10 04:44:06;;;;;;;4.05;3.25;;;;;;;14.18;76.38;102512.16;5038078;28;20075;-67
2022/08/10 04:46:31;;;;;;;6.93;4.25;;;;;;;14.18;77.33;102506.66;5041576;28;20427;-66
2022/08/10 04:48:57;;;;;;;7.45;4.30;;;;;;;14.21;76.60;102511.06;5033920;28;20025;-65
2022/08/10 04:51:22;;;;;;;13.65;4.20;;;;;;;14.20;76.61;102499.22;5040906;28;20439;-68
2022/08/10 04:53:50;;;;;;;7.10;3.85;;;;;;;14.22;78.46;102507.34;5024926;28;20056;-66
2022/08/10 04:56:15;;;;;;;6.05;4.45;;;;;;;14.23;77.34;102496.31;5023804;28;20044;-65
2022/08/10 04:58:41;;;;;;;14.32;4.70;;;;;;;14.23;77.15;102499.06;5024772;28;20125;-65
2022/08/10 05:01:06;;;;;;;10.43;4.30;;;;;;;14.24;76.98;102503.56;5026451;28;20037;-66
2022/08/10 05:03:32;;;;;;;6.93;3.80;;;;;;;14.26;78.05;102501.59;5026013;28;20048;-66
2022/08/10 05:05:57;;;;;;;8.77;4.10;;;;;;;14.24;78.16;102500.81;5025031;28;20202;-69
2022/08/10 05:08:22;;;;;;;6.55;4.07;;;;;;;14.25;77.99;102498.94;5041432;28;20118;-66
2022/08/10 05:10:48;;;;;;;6.25;4.13;;;;;;;14.30;77.82;102505.91;5043606;28;20040;-66
2022/08/10 05:13:13;;;;;;;10.20;4.07;;;;;;;14.34;77.30;102497.50;5045035;28;20144;-67
2022/08/10 05:15:42;;;;;;;8.50;4.30;;;;;;;14.39;78.07;102492.63;5038032;28;20063;-66
2022/08/10 05:18:08;;;;;;;14.13;4.70;;;;;;;14.39;77.95;102496.25;5024800;28;20044;-67
2022/08/10 05:20:33;;;;;;;6.88;4.63;;;;;;;14.45;79.34;102500.44;5025139;28;20613;-65
2022/08/10 05:22:58;;;;;;;8.65;4.22;;;;;;;14.45;78.15;102495.84;5053614;28;20025;-67
2022/08/10 05:25:24;;;;;;;9.77;4.65;;;;;;;14.49;79.04;102499.31;5039053;28;20469;-66
2022/08/10 05:27:49;;;;;;;5.80;4.28;;;;;;;14.52;77.94;102502.75;5037127;28;20489;-66
2022/08/10 05:30:19;;;;;;;10.95;5.10;;;;;;;14.58;79.59;102512.44;5044118;28;20021;-66
2022/08/10 05:32:45;;;;;;;6.47;4.55;;;;;;;14.61;77.80;102503.16;5034092;28;20048;-66
2022/08/10 05:35:11;;;;;;;10.32;5.88;;;;;;;14.63;81.23;102513.03;5024435;28;20033;-67
2022/08/10 05:37:37;;;;;;;7.85;5.25;;;;;;;14.67;80.98;102516.47;5023862;28;20511;-67
2022/08/10 05:40:04;;;;;;;9.27;5.60;;;;;;;14.71;80.29;102515.28;5023134;28;20136;-66
2022/08/10 05:42:30;;;;;;;7.78;4.70;;;;;;;14.74;80.73;102512.38;5025119;28;20183;-66
2022/08/10 05:44:56;;;;;;;11.00;5.65;;;;;;;14.78;81.80;102511.16;5038273;28;20036;-65
2022/08/10 05:47:21;;;;;;;8.82;5.40;;;;;;;14.83;81.55;102516.34;5037328;28;20168;-69
2022/08/10 05:49:48;;;;;;;8.52;5.47;;;;;;;14.87;82.31;102513.31;5025209;28;21884;-66
2022/08/10 05:52:14;;;;;;;7.40;5.43;;;;;;;14.92;81.92;102511.19;5025050;28;20033;-66
2022/08/10 05:54:40;;;;;;;6.75;5.22;;;;;;;14.98;82.37;102512.66;5025733;28;20052;-66
2022/08/10 05:57:06;;;;;;;9.10;5.80;;;;;;;15.05;82.53;102519.47;5025175;28;20037;-66
2022/08/10 05:59:34;;;;;;;7.75;5.68;;;;;;;15.10;82.16;102517.31;5025732;28;20032;-67
2022/08/10 06:02:03;;;;;;;8.20;5.70;;;;;;;15.19;82.45;102518.59;5024503;28;20040;-65
2022/08/10 06:04:36;;;;;;;7.82;6.00;;;;;;;15.22;80.95;102516.53;5025259;28;20020;-67
2022/08/10 06:07:03;;;;;;;;;;;;;;;15.31;78.78;102515.06;5024916;28;20037;-67
2022/08/10 06:09:30;;;;;;;9.20;5.85;;;;;;;15.40;81.82;102513.56;5025506;28;20368;-67
2022/08/10 06:11:58;;;;;;;10.52;5.47;;;;;;;15.43;81.34;102508.75;5025097;28;20041;-67
2022/08/10 06:17:10;;;;;;;8.07;5.60;;;;;;;15.57;81.64;102513.31;5039171;28;20045;-67
2022/08/10 06:19:37;;;;;;;7.90;5.88;;;;;;;15.66;81.00;102520.09;5024621;28;20041;-68
2022/08/10 06:22:02;;;;;;;8.98;5.50;;;;;;;15.78;81.19;102522.88;5024559;28;20044;-67
2022/08/10 06:24:29;;;;;;;7.47;5.78;;;;;;;15.89;80.55;102513.91;5025219;28;20031;-66
2022/08/10 06:26:54;;;;;;;10.02;5.88;;;;;;;15.94;80.70;102513.59;5025063;28;20523;-67
2022/08/10 06:29:22;;;;;;;14.25;5.95;;;;;;;15.99;80.88;102517.81;5026100;28;20013;-67
2022/08/10 06:31:51;;;;;;;16.10;5.55;;;;;;;16.05;80.59;102522.00;5025586;28;20685;-66
2022/08/10 06:34:28;;;;;;;11.75;5.60;;;;;;;16.14;80.19;102515.88;5025781;28;20547;-67
2022/08/10 06:36:56;;;;;;;13.80;6.38;;;;;;;16.22;79.26;102520.81;5023740;28;20844;-68
2022/08/10 06:39:22;;;;;;;8.57;6.30;;;;;;;16.33;79.30;102521.84;5040342;28;20061;-67
2022/08/10 06:41:52;;;;;;;16.52;6.82;;;;;;;16.40;79.15;102519.53;5029472;28;20028;-66
2022/08/10 06:44:27;;;;;;;8.75;6.40;;;;;;;16.48;78.58;102513.50;5061051;28;20031;-67
2022/08/10 06:46:54;;;;;;;18.00;6.70;;;;;;;16.54;78.11;102521.31;5035268;28;20109;-67
2022/08/10 06:49:21;;;;;;;9.55;6.65;;;;;;;16.58;78.41;102511.84;5026028;28;20048;-66
2022/08/10 06:51:53;;;;;;;8.20;6.35;;;;;;;16.64;78.00;102516.91;5026545;28;20057;-66
2022/08/10 06:54:23;;;;;;;10.75;6.60;;;;;;;16.73;77.48;102512.66;5044327;28;20034;-67
2022/08/10 06:56:51;;;;;;;9.43;6.65;;;;;;;16.81;76.73;102515.75;5029000;28;20049;-68
2022/08/10 06:59:35;;;;;;;10.48;6.28;;;;;;;16.90;76.05;102526.06;5042926;28;20039;-67
2022/08/10 07:02:11;;;;;;;8.95;6.97;;;;;;;16.94;76.98;102524.00;5042004;28;20048;-66
2022/08/10 07:04:51;;;;;;;10.45;6.40;;;;;;;17.02;74.98;102518.78;5028109;28;20116;-69
2022/08/10 07:07:21;;;;;;;10.32;7.10;;;;;;;17.11;75.25;102518.09;5028627;28;20037;-66
2022/08/10 07:09:48;;;;;;;10.55;6.35;;;;;;;17.18;75.92;102521.31;5029105;28;20025;-67
2022/08/10 07:12:15;;;;;;;8.45;6.88;;;;;;;17.26;75.66;102521.63;5042932;28;20049;-67
2022/08/10 07:14:43;;;;;;;9.07;7.30;;;;;;;17.34;75.35;102521.91;5048281;28;20528;-68
2022/08/10 07:17:19;;;;;;;8.88;6.47;;;;;;;17.42;75.14;102527.72;5039385;28;20601;-66
2022/08/10 07:19:46;;;;;;;8.52;6.18;;;;;;;17.46;75.92;102520.13;5027506;28;20358;-66
2022/08/10 07:22:15;;;;;;;12.32;7.38;;;;;;;17.50;74.66;102529.94;5025623;28;20499;-67
2022/08/10 07:24:43;;;;;;;9.40;6.53;;;;;;;17.57;74.63;102523.81;5027660;28;20040;-67
2022/08/10 07:27:10;;;;;;;10.25;7.03;;;;;;;17.67;73.67;102532.25;5027591;28;20041;-67
2022/08/10 07:29:38;;;;;;;8.40;6.22;;;;;;;17.79;72.92;102531.38;5028198;28;20038;-68
2022/08/10 07:32:05;;;;;;;10.45;6.55;;;;;;;17.88;71.79;102543.56;5027238;28;20084;-67
2022/08/10 07:34:32;;;;;;;9.13;6.53;;;;;;;17.96;71.17;102535.59;5027787;28;20037;-67
2022/08/10 07:37:01;;;;;;;9.52;6.05;;;;;;;18.05;71.23;102534.91;5025514;28;20041;-67
2022/08/10 07:39:34;;;;;;;11.93;6.13;;;;;;;18.14;71.57;102538.81;5027647;28;20099;-68
2022/08/10 07:42:01;;;;;;;12.07;5.78;;;;;;;18.20;71.68;102534.72;5027584;28;20064;-67
2022/08/10 07:44:28;;;;;;;9.77;5.53;;;;;;;18.27;71.21;102534.09;5036395;28;20036;-67
2022/08/10 07:46:56;;;;;;;8.77;5.63;;;;;;;18.35;71.24;102530.75;5043846;28;20033;-66
2022/08/10 07:49:29;;;;;;;35.17;7.85;;;;;;;18.45;70.59;102533.66;5027705;28;20056;-68
2022/08/10 07:51:56;;;;;;;11.43;5.63;;;;;;;18.59;68.43;102526.03;5008397;28;20066;-68
2022/08/10 07:54:25;;;;;;;8.48;5.82;;;;;;;18.71;68.46;102524.22;5043504;28;20078;-66
2022/08/10 07:56:54;;;;;;;14.57;6.40;;;;;;;18.81;69.29;102529.88;5042162;28;20083;-67
2022/08/10 07:59:28;;;;;;;12.43;5.13;;;;;;;18.98;67.35;102536.75;5028267;28;20053;-66
2022/08/10 08:01:55;;;;;;;9.07;6.05;;;;;;;19.27;65.83;102531.66;5026330;28;20049;-68
2022/08/10 08:04:22;;;;;;;8.07;5.00;;;;;;;19.81;65.43;102531.69;5027692;28;20064;-66
2022/08/10 08:06:50;;;;;;;7.80;5.47;;;;;;;20.18;64.98;102533.19;5026264;28;20041;-68
2022/08/10 08:09:18;;;;;;;6.65;4.57;;;;;;;21.00;64.29;102531.44;5027082;28;20033;-67
2022/08/10 08:11:45;;;;;;;6.82;5.07;;;;;;;21.64;60.37;102533.03;5027022;28;20041;-67
2022/08/10 08:14:12;;;;;;;8.80;5.25;;;;;;;21.98;59.44;102530.75;5033326;28;20139;-67
2022/08/10 08:16:41;;;;;;;7.70;4.80;;;;;;;22.36;58.57;102540.13;5045743;28;20032;-67
2022/08/10 08:19:08;;;;;;;7.90;5.28;;;;;;;22.66;56.39;102537.16;5027447;28;20033;-67
2022/08/10 08:21:34;;;;;;;6.22;4.80;;;;;;;23.20;56.30;102542.13;5025783;28;20551;-67
2022/08/10 08:24:01;;;;;;;7.85;4.57;;;;;;;24.02;55.10;102538.47;5026645;28;20567;-69
2022/08/10 08:26:27;;;;;;;11.40;4.60;;;;;;;24.30;52.02;102528.16;5026338;28;20025;-67
2022/08/10 08:28:53;;;;;;;6.38;4.28;;;;;;;24.39;51.45;102530.88;5027027;28;20037;-67
2022/08/10 08:31:21;;;;;;;6.63;4.60;;;;;;;24.35;51.61;102525.75;5027322;28;20037;-68
2022/08/10 08:33:48;;;;;;;7.72;4.53;;;;;;;24.93;50.39;102526.03;5027072;28;20045;-67
2022/08/10 08:36:16;;;;;;;8.63;4.60;;;;;;;25.11;48.73;102520.44;5025867;28;20045;-67
2022/08/10 08:38:43;;;;;;;125.70;12.48;;;;;;;25.37;48.69;102520.38;5026255;28;20032;-68
2022/08/10 08:41:36;;;;;;;8.30;4.72;;;;;;;25.40;49.01;102521.94;5026604;28;20045;-67
2022/08/10 08:44:13;;;;;;;18.63;4.55;;;;;;;25.90;49.22;102526.69;5031821;28;20075;-68
2022/08/10 08:47:10;;;;;;;14.32;3.70;;;;;;;26.51;49.97;102524.50;5043011;28;20049;-67
2022/08/10 08:50:03;;;;;;;6.65;3.70;;;;;;;27.03;48.30;102513.75;5026093;28;20056;-68
2022/08/10 08:52:28;;;;;;;8.02;3.83;;;;;;;27.24;46.56;102516.00;5026229;28;20041;-67
2022/08/10 08:55:20;;;;;;;5.82;3.13;;;;;;;27.56;46.80;102528.06;5028884;28;20068;-67
2022/08/10 08:58:14;;;;;;;;;;;;;;;27.56;47.58;102526.16;5041750;28;20087;-66
2022/08/10 09:00:44;;;;;;;5.40;3.55;;;;;;;27.21;43.87;102527.53;5026333;28;19928;-67
2022/08/10 09:04:00;;;;;;;8.15;3.67;;;;;;;26.70;45.38;102527.78;5039080;28;20033;-68
2022/08/10 09:06:31;;;;;;;5.03;3.25;;;;;;;26.87;46.00;102517.47;4981634;28;20044;-66
2022/08/10 09:09:28;;;;;;;8.93;4.43;;;;;;;26.89;44.76;102523.72;4984256;28;20038;-66
2022/08/10 09:12:20;;;;;;;6.28;3.63;;;;;;;27.00;45.98;102502.94;5014863;28;20402;-67
2022/08/10 09:14:55;;;;;;;5.85;3.78;;;;;;;27.15;44.50;102503.09;5036121;28;20542;-67
2022/08/10 09:17:31;;;;;;;4.47;2.95;;;;;;;27.83;44.93;102501.53;5039727;28;20132;-67
2022/08/10 09:20:06;;;;;;;5.90;3.40;;;;;;;27.92;41.93;102501.31;5025233;28;20045;-68
2022/08/10 09:22:42;;;;;;;6.38;3.70;;;;;;;27.60;41.19;102501.47;5030224;28;20052;-66
2022/08/10 09:25:19;;;;;;;7.07;3.22;;;;;;;27.70;44.25;102500.22;5025599;28;20069;-66
2022/08/10 09:27:47;;;;;;;8.35;3.60;;;;;;;27.91;40.66;102493.97;5025540;28;20120;-66
2022/08/10 09:30:32;;;;;;;6.43;3.53;;;;;;;27.69;39.92;102492.84;5025640;28;20040;-66
2022/08/10 09:33:12;;;;;;;5.25;2.80;;;;;;;28.01;42.23;102490.94;5025388;28;20393;-66
2022/08/10 09:36:09;;;;;;;6.05;2.58;;;;;;;28.58;42.79;102486.78;5024713;28;20388;-66
2022/08/10 09:38:44;;;;;;;6.95;3.13;;;;;;;28.64;39.65;102483.25;5025109;28;20116;-65
2022/08/10 09:41:36;;;;;;;4.07;2.90;;;;;;;28.81;41.70;102478.31;5025877;28;20467;-66
2022/08/10 09:44:23;;;;;;;4.75;2.72;;;;;;;29.39;41.05;102479.41;5031226;28;20103;-66
2022/08/10 09:46:57;;;;;;;5.93;3.63;;;;;;;29.07;38.24;102487.16;5028550;28;20400;-66
2022/08/10 09:49:47;;;;;;;5.05;3.08;;;;;;;28.62;39.90;102477.81;5025698;28;20120;-65
2022/08/10 09:52:28;;;;;;;11.02;2.97;;;;;;;28.84;40.20;102475.16;5024536;28;20090;-66
2022/08/10 09:55:15;;;;;;;6.13;2.78;;;;;;;29.34;41.45;102467.91;5025450;28;20038;-65
2022/08/10 09:58:22;;;;;;;6.40;3.13;;;;;;;29.80;37.94;102476.03;5025526;28;20125;-65
2022/08/10 10:00:56;;;;;;;8.35;2.90;;;;;;;29.87;37.42;102466.63;5025917;28;20101;-67
2022/08/10 10:03:30;;;;;;;8.90;3.22;;;;;;;29.74;36.92;102460.84;5025150;28;20033;-68
2022/08/10 10:06:28;;;;;;;7.50;2.90;;;;;;;29.77;38.76;102462.41;5026020;28;20037;-65
2022/08/10 10:09:13;;;;;;;4.93;2.95;;;;;;;29.50;38.40;102453.66;5025343;28;20045;-65
2022/08/10 10:11:59;;;;;;;6.20;3.25;;;;;;;29.35;34.72;102453.69;5025170;28;20064;-66
2022/08/10 10:17:51;;;;;;;6.82;2.90;;;;;;;29.96;37.07;102447.72;5035976;28;20042;-68
2022/08/10 10:20:27;;;;;;;5.78;2.90;;;;;;;30.21;34.49;102453.78;5025105;28;20035;-65
2022/08/10 10:23:20;;;;;;;7.53;3.15;;;;;;;30.44;36.32;102443.19;5025004;28;20041;-67
2022/08/10 10:26:02;;;;;;;5.05;2.90;;;;;;;30.48;34.54;102441.72;5026206;28;20102;-66
2022/08/10 10:28:49;;;;;;;4.50;2.70;;;;;;;30.55;34.90;102446.53;5029454;28;20520;-65
2022/08/10 10:31:30;;;;;;;12.93;3.50;;;;;;;30.41;35.75;102438.00;5029258;28;20041;-65
2022/08/10 10:33:59;;;;;;;4.32;2.90;;;;;;;30.09;32.72;102432.94;5028623;28;20087;-66
2022/08/10 10:36:26;;;;;;;10.65;3.20;;;;;;;29.98;34.08;102428.72;5027599;28;20072;-67
2022/08/10 10:38:57;;;;;;;12.00;3.22;;;;;;;30.00;32.95;102429.41;5029458;28;20039;-65
2022/08/10 10:41:36;;;;;;;11.73;3.42;;;;;;;30.28;33.33;102428.59;5028679;28;20064;-66
2022/08/10 10:44:31;;;;;;;7.25;2.95;;;;;;;30.78;34.24;102423.78;5034175;28;20357;-65
2022/08/10 10:47:41;;;;;;;6.60;3.13;;;;;;;31.18;34.69;102422.06;5047666;28;20067;-66
2022/08/10 10:50:29;;;;;;;6.50;2.70;;;;;;;31.61;32.48;102417.03;5015558;28;20397;-64
2022/08/10 10:53:16;;;;;;;5.88;2.90;;;;;;;31.57;31.96;102410.13;5028398;28;20311;-65
2022/08/10 10:55:42;;;;;;;3.60;2.90;;;;;;;31.58;29.83;102411.84;5028724;28;20060;-66
2022/08/10 10:58:20;;;;;;;3.50;2.72;;;;;;;31.91;31.68;102406.31;5028722;28;20123;-66
2022/08/10 11:01:19;;;;;;;3.92;3.00;;;;;;;31.96;31.40;102411.28;5028948;28;20053;-65
2022/08/10 11:04:26;;;;;;;3.35;2.70;;;;;;;31.93;31.62;102404.13;5028397;28;20460;-66
2022/08/10 11:06:59;;;;;;;6.45;3.08;;;;;;;31.84;30.21;102401.75;4985746;28;20049;-68
2022/08/10 11:09:54;;;;;;;3.38;3.08;;;;;;;31.42;31.49;102395.34;5028365;28;20037;-66
2022/08/10 11:12:39;;;;;;;4.80;3.47;;;;;;;31.20;32.05;102392.66;5026870;28;20496;-67
2022/08/10 11:15:12;;;;;;;3.75;2.70;;;;;;;31.53;30.00;102389.13;5042311;28;20051;-65
2022/08/10 11:18:06;;;;;;;5.95;3.05;;;;;;;31.81;30.17;102393.72;5028838;28;20075;-65
2022/08/10 11:20:41;;;;;;;36.00;4.15;;;;;;;32.14;29.24;102388.13;5032183;28;20041;-66
2022/08/10 11:23:28;;;;;;;7.72;2.80;;;;;;;32.73;27.81;102378.72;5047805;28;20067;-67
2022/08/10 11:26:05;;;;;;;5.38;2.72;;;;;;;32.60;28.64;102382.47;5029532;28;20077;-65
2022/08/10 11:29:00;;;;;;;5.07;2.80;;;;;;;32.94;29.21;102377.63;5043695;28;20033;-65
2022/08/10 11:31:38;;;;;;;5.55;2.65;;;;;;;32.73;27.82;102385.22;5028186;28;20422;-65
2022/08/10 11:34:16;;;;;;;8.35;3.08;;;;;;;32.74;27.87;102378.53;5027910;28;20048;-65
2022/08/10 11:36:52;;;;;;;5.45;2.63;;;;;;;32.87;26.80;102385.19;5025825;28;20126;-65
2022/08/10 11:39:37;;;;;;;7.63;2.85;;;;;;;33.08;28.04;102386.88;5027765;28;20432;-66
2022/08/10 11:42:13;;;;;;;3.88;2.83;;;;;;;33.39;29.58;102383.22;5027728;28;20040;-65
2022/08/10 11:44:46;;;;;;;4.25;3.00;;;;;;;33.38;26.59;102379.56;5037866;28;20045;-65
2022/08/10 11:47:19;;;;;;;6.40;3.00;;;;;;;33.12;27.59;102376.88;5031834;28;20061;-65
2022/08/10 11:50:10;;;;;;;5.47;3.08;;;;;;;33.12;29.37;102380.56;5027061;28;20397;-67
2022/08/10 11:52:47;;;;;;;5.47;3.40;;;;;;;33.00;29.18;102377.56;5027079;28;20060;-66
2022/08/10 11:55:23;;;;;;;8.98;3.58;;;;;;;33.26;27.55;102367.28;5027069;28;20069;-66
2022/08/10 11:57:52;;;;;;;8.63;2.80;;;;;;;33.31;28.57;102367.44;5027559;28;20045;-66